createdAt,value
2023-04-07T00:02:00.679Z,67.62
2023-04-07T00:04:28.442Z,68.21
2023-04-07T00:06:56.144Z,67.90
2023-04-07T00:09:23.588Z,68.51
2023-04-07T00:11:51.293Z,68.40
2023-04-07T00:14:19.924Z,68.71
2023-04-07T00:16:47.242Z,68.27
2023-04-07T00:19:14.535Z,68.45
2023-04-07T00:21:41.942Z,69.09
2023-04-07T00:24:09.242Z,69.00
2023-04-07T00:26:36.558Z,68.99
2023-04-07T00:29:03.812Z,70.01
2023-04-07T00:31:32.499Z,69.70
2023-04-07T00:33:59.774Z,69.28
2023-04-07T00:36:28.627Z,69.42
2023-04-07T00:38:55.891Z,69.90
2023-04-07T00:41:23.193Z,69.49
2023-04-07T00:43:51.558Z,68.78
2023-04-07T00:46:20.441Z,69.15
2023-04-07T00:48:49.134Z,69.13
2023-04-07T00:51:16.569Z,69.99
2023-04-07T00:53:43.870Z,70.18
2023-04-07T00:56:11.283Z,70.16
2023-04-07T00:58:38.631Z,70.51
2023-04-07T01:01:09.417Z,70.81
2023-04-07T01:03:40.570Z,71.50
2023-04-07T01:06:09.515Z,72.19
2023-04-07T01:08:43.376Z,72.47
2023-04-07T01:11:14.689Z,72.48
2023-04-07T01:13:44.295Z,72.30
2023-04-07T01:16:13.881Z,71.96
2023-04-07T01:18:41.243Z,71.81
2023-04-07T01:21:11.913Z,71.91
2023-04-07T01:23:50.093Z,72.06
2023-04-07T01:26:22.725Z,72.19
2023-04-07T01:28:58.547Z,71.65
2023-04-07T01:31:27.826Z,72.05
2023-04-07T01:33:56.544Z,72.19
2023-04-07T01:36:24.582Z,72.78
2023-04-07T01:38:52.328Z,72.94
2023-04-07T01:41:20.162Z,73.33
2023-04-07T01:43:48.487Z,74.43
2023-04-07T01:46:15.902Z,74.37
2023-04-07T01:48:44.974Z,74.37
2023-04-07T01:51:17.288Z,75.09
2023-04-07T01:53:44.799Z,74.95
2023-04-07T01:56:12.190Z,74.90
2023-04-07T01:58:39.601Z,74.94
2023-04-07T02:01:06.930Z,74.84
2023-04-07T02:03:37.346Z,73.60
2023-04-07T02:06:08.341Z,73.91
2023-04-07T02:08:37.458Z,73.88
2023-04-07T02:11:07.798Z,73.22
2023-04-07T02:13:36.033Z,73.57
2023-04-07T02:16:03.358Z,73.33
2023-04-07T02:18:31.698Z,73.35
2023-04-07T02:20:59.483Z,72.90
2023-04-07T02:23:28.165Z,73.50
2023-04-07T02:25:56.654Z,73.72
2023-04-07T02:28:23.913Z,74.04
2023-04-07T02:30:51.347Z,74.25
2023-04-07T02:33:18.605Z,74.51
2023-04-07T02:35:46.098Z,74.77
2023-04-07T02:38:13.358Z,74.77
2023-04-07T02:40:41.963Z,75.06
2023-04-07T02:43:09.227Z,75.64
2023-04-07T02:45:36.525Z,75.86
2023-04-07T02:48:03.941Z,75.00
2023-04-07T02:50:31.220Z,75.18
2023-04-07T02:52:58.509Z,75.14
2023-04-07T02:55:25.890Z,75.48
2023-04-07T02:57:54.490Z,75.02
2023-04-07T03:00:21.771Z,75.45
2023-04-07T03:02:49.510Z,75.37
2023-04-07T03:05:16.878Z,75.06
2023-04-07T03:07:44.127Z,75.08
2023-04-07T03:10:11.566Z,75.73
2023-04-07T03:12:38.844Z,75.93
2023-04-07T03:15:08.261Z,75.09
2023-04-07T03:17:35.733Z,75.45
2023-04-07T03:20:03.321Z,75.93
2023-04-07T03:22:30.608Z,76.66
2023-04-07T03:24:57.902Z,77.12
2023-04-07T03:27:25.184Z,77.25
2023-04-07T03:29:53.350Z,76.64
2023-04-07T03:32:21.979Z,76.79
2023-04-07T03:34:49.264Z,77.07
2023-04-07T03:37:16.542Z,76.19
2023-04-07T03:39:43.782Z,77.12
2023-04-07T03:42:11.052Z,77.51
2023-04-07T03:44:38.319Z,76.70
2023-04-07T03:47:05.644Z,76.19
2023-04-07T03:49:34.324Z,76.48
2023-04-07T03:52:01.972Z,76.57
2023-04-07T03:54:29.228Z,76.45
2023-04-07T03:56:56.813Z,76.25
2023-04-07T03:59:24.151Z,76.54
2023-04-07T04:01:51.917Z,76.32
2023-04-07T04:04:19.279Z,76.54
2023-04-07T04:06:48.210Z,77.02
2023-04-07T04:09:15.598Z,77.42
2023-04-07T04:11:42.870Z,77.69
2023-04-07T04:14:10.239Z,77.57
2023-04-07T04:16:37.506Z,77.06
2023-04-07T04:19:04.795Z,76.83
2023-04-07T04:21:32.126Z,76.41
2023-04-07T04:24:00.719Z,76.17
2023-04-07T04:26:29.768Z,76.80
2023-04-07T04:28:57.048Z,76.65
2023-04-07T04:31:24.358Z,75.94
2023-04-07T04:33:52.666Z,76.58
2023-04-07T04:36:20.317Z,76.47
2023-04-07T04:38:47.614Z,77.22
2023-04-07T04:41:16.340Z,77.42
2023-04-07T04:43:43.639Z,77.97
2023-04-07T04:46:11.156Z,79.06
2023-04-07T04:48:38.468Z,78.63
2023-04-07T04:51:05.996Z,77.71
2023-04-07T04:53:33.308Z,78.22
2023-04-07T04:56:00.585Z,77.49
2023-04-07T04:58:29.191Z,77.61
2023-04-07T05:00:58.265Z,77.26
2023-04-07T05:03:26.942Z,76.99
2023-04-07T05:05:54.475Z,77.38
2023-04-07T05:08:21.726Z,77.81
2023-04-07T05:10:49.008Z,77.90
2023-04-07T05:13:16.310Z,77.55
2023-04-07T05:15:44.886Z,77.33
2023-04-07T05:18:12.219Z,77.32
2023-04-07T05:20:39.684Z,76.82
2023-04-07T05:23:06.953Z,76.62
2023-04-07T05:25:34.294Z,76.21
2023-04-07T05:28:01.593Z,76.04
2023-04-07T05:30:28.906Z,75.62
2023-04-07T05:32:57.528Z,75.65
2023-04-07T05:35:24.846Z,75.06
2023-04-07T05:37:52.127Z,75.01
2023-04-07T05:40:19.463Z,75.01
2023-04-07T05:42:46.731Z,74.88
2023-04-07T05:45:14.011Z,74.39
2023-04-07T05:47:41.450Z,74.26
2023-04-07T05:50:12.202Z,73.60
2023-04-07T05:52:39.439Z,72.64
2023-04-07T05:55:07.246Z,72.33
2023-04-07T05:57:34.805Z,71.71
2023-04-07T06:00:02.095Z,70.70
2023-04-07T06:02:29.526Z,69.99
2023-04-07T06:04:57.119Z,69.87
2023-04-07T06:07:25.813Z,69.79
2023-04-07T06:09:53.074Z,68.72
2023-04-07T06:12:20.396Z,68.28
2023-04-07T06:14:48.360Z,68.79
2023-04-07T06:17:15.619Z,68.29
2023-04-07T06:19:42.888Z,67.81
2023-04-07T06:22:10.200Z,67.20
2023-04-07T06:24:38.813Z,66.15
2023-04-07T06:27:06.650Z,65.62
2023-04-07T06:29:34.484Z,65.88
2023-04-07T06:32:02.425Z,65.49
2023-04-07T06:34:29.687Z,64.99
2023-04-07T06:36:58.176Z,64.78
2023-04-07T06:39:27.574Z,64.14
2023-04-07T06:41:56.931Z,63.65
2023-04-07T06:44:24.220Z,63.44
2023-04-07T06:46:53.289Z,62.63
2023-04-07T06:49:20.716Z,63.16
2023-04-07T06:51:47.966Z,62.82
2023-04-07T06:54:15.494Z,62.70
2023-04-07T06:56:43.364Z,61.78
2023-04-07T06:59:12.030Z,60.82
2023-04-07T07:01:39.503Z,60.29
2023-04-07T07:04:07.143Z,59.53
2023-04-07T07:06:34.570Z,58.88
2023-04-07T07:12:55.109Z,57.13
2023-04-07T07:15:23.702Z,57.10
2023-04-07T07:17:51.052Z,56.01
2023-04-07T07:20:18.428Z,54.56
2023-04-07T07:22:45.829Z,54.88
2023-04-07T07:25:13.138Z,53.66
2023-04-07T07:27:40.430Z,53.43
2023-04-07T07:30:08.234Z,52.97
2023-04-07T07:32:36.945Z,52.73
2023-04-07T07:35:04.294Z,54.47
2023-04-07T07:37:31.738Z,53.88
2023-04-07T07:39:59.164Z,54.37
2023-04-07T07:42:26.482Z,54.63
2023-04-07T07:44:53.731Z,53.73
2023-04-07T07:47:21.055Z,51.28
2023-04-07T07:49:49.932Z,51.38
2023-04-07T07:52:17.285Z,50.28
2023-04-07T07:54:44.545Z,50.63
2023-04-07T07:57:12.303Z,48.74
2023-04-07T07:59:40.564Z,48.04
2023-04-07T08:02:08.003Z,46.54
2023-04-07T08:04:35.883Z,46.30
2023-04-07T08:07:04.692Z,48.31
2023-04-07T08:09:32.404Z,48.09
2023-04-07T08:11:59.693Z,48.23
2023-04-07T08:14:27.028Z,48.37
2023-04-07T08:16:54.316Z,46.88
2023-04-07T08:19:21.683Z,46.07
2023-04-07T08:21:48.958Z,46.41
2023-04-07T08:24:17.529Z,46.47
2023-04-07T08:26:45.535Z,48.03
2023-04-07T08:29:12.858Z,47.45
2023-04-07T08:31:40.744Z,46.00
2023-04-07T08:34:08.115Z,45.77
2023-04-07T08:36:35.560Z,45.52
2023-04-07T08:39:05.560Z,44.43
2023-04-07T08:41:37.714Z,45.31
2023-04-07T08:44:05.387Z,45.61
2023-04-07T08:46:34.040Z,45.03
2023-04-07T08:49:02.101Z,44.72
2023-04-07T08:51:31.636Z,44.84
2023-04-07T08:54:01.692Z,44.92
2023-04-07T08:56:29.325Z,44.15
2023-04-07T08:58:57.988Z,44.87
2023-04-07T09:01:26.078Z,44.66
2023-04-07T09:03:53.450Z,45.83
2023-04-07T09:06:20.841Z,42.82
2023-04-07T09:08:48.088Z,42.72
2023-04-07T09:11:15.394Z,42.93
2023-04-07T09:13:42.675Z,41.68
2023-04-07T09:16:11.360Z,41.94
2023-04-07T09:18:39.010Z,42.98
2023-04-07T09:21:07.758Z,41.94
2023-04-07T09:23:36.068Z,41.42
2023-04-07T09:26:19.862Z,41.50
2023-04-07T09:28:48.042Z,41.69
2023-04-07T09:31:16.672Z,44.29
2023-04-07T09:33:44.087Z,40.58
2023-04-07T09:36:12.280Z,40.85
2023-04-07T09:38:40.545Z,40.86
2023-04-07T09:41:09.168Z,41.43
2023-04-07T09:43:37.608Z,42.48
2023-04-07T09:46:09.122Z,41.08
2023-04-07T09:48:38.366Z,41.28
2023-04-07T09:51:06.643Z,41.25
2023-04-07T09:53:42.332Z,40.29
2023-04-07T09:56:10.098Z,40.73
2023-04-07T09:58:39.140Z,41.75
2023-04-07T10:01:08.244Z,37.55
2023-04-07T10:03:35.848Z,37.90
2023-04-07T10:06:05.491Z,38.80
2023-04-07T10:08:33.555Z,40.02
2023-04-07T10:11:01.776Z,39.05
2023-04-07T10:13:29.908Z,38.33
2023-04-07T10:15:58.415Z,38.39
2023-04-07T10:18:29.311Z,38.37
2023-04-07T10:20:57.426Z,37.54
2023-04-07T10:23:29.697Z,37.87
2023-04-07T10:25:58.380Z,38.07
2023-04-07T10:28:27.383Z,37.96
2023-04-07T10:30:55.449Z,37.27
2023-04-07T10:33:37.675Z,37.39
2023-04-07T10:36:05.737Z,37.67
2023-04-07T10:38:34.418Z,37.12
2023-04-07T10:41:01.721Z,37.43
2023-04-07T10:43:38.200Z,37.92
2023-04-07T10:46:05.766Z,37.30
2023-04-07T10:48:34.047Z,37.83
2023-04-07T10:51:17.765Z,36.51
2023-04-07T10:54:03.919Z,36.48
2023-04-07T10:56:46.104Z,37.53
2023-04-07T10:59:19.307Z,36.77
2023-04-07T11:01:46.662Z,35.83
2023-04-07T11:04:14.248Z,37.61
2023-04-07T11:06:48.019Z,35.77
2023-04-07T11:09:19.937Z,36.92
2023-04-07T11:11:48.656Z,34.89
2023-04-07T11:14:28.040Z,35.30
2023-04-07T11:16:55.633Z,35.52
2023-04-07T11:19:23.477Z,35.52
2023-04-07T11:21:51.179Z,36.13
2023-04-07T11:24:34.061Z,37.19
2023-04-07T11:27:01.991Z,35.44
2023-04-07T11:29:30.715Z,37.03
2023-04-07T11:31:59.155Z,36.70
2023-04-07T11:34:31.003Z,36.66
2023-04-07T11:36:59.755Z,36.46
2023-04-07T11:39:30.977Z,36.15
2023-04-07T11:41:58.353Z,35.74
2023-04-07T11:44:26.578Z,35.54
2023-04-07T11:46:56.005Z,36.61
2023-04-07T11:49:24.907Z,35.98
2023-04-07T11:51:59.149Z,37.01
2023-04-07T11:54:26.401Z,35.26
2023-04-07T11:56:55.623Z,36.95
2023-04-07T11:59:23.671Z,37.30
2023-04-07T12:01:51.585Z,36.29
2023-04-07T12:04:20.530Z,35.75
2023-04-07T12:06:49.175Z,35.75
2023-04-07T12:09:32.178Z,37.14
2023-04-07T12:12:00.096Z,36.07
2023-04-07T12:14:27.726Z,36.46
2023-04-07T12:16:56.426Z,36.26
2023-04-07T12:19:25.265Z,36.45
2023-04-07T12:21:52.542Z,37.15
2023-04-07T12:24:19.799Z,36.84
2023-04-07T12:26:47.224Z,37.05
2023-04-07T12:29:14.700Z,36.48
2023-04-07T12:31:42.439Z,35.93
2023-04-07T12:34:09.945Z,37.55
2023-04-07T12:36:38.646Z,36.06
2023-04-07T12:39:06.338Z,35.49
2023-04-07T12:41:33.665Z,35.43
2023-04-07T12:44:00.915Z,37.39
2023-04-07T12:46:28.230Z,36.82
2023-04-07T12:48:55.519Z,35.38
2023-04-07T12:51:22.985Z,35.46
2023-04-07T12:53:51.546Z,36.38
2023-04-07T12:56:18.806Z,36.14
2023-04-07T12:58:46.094Z,36.37
2023-04-07T13:01:13.423Z,35.66
2023-04-07T13:03:41.045Z,36.64
2023-04-07T13:06:08.579Z,37.53
2023-04-07T13:08:36.000Z,36.71
2023-04-07T13:11:04.789Z,37.28
2023-04-07T13:13:32.211Z,37.46
2023-04-07T13:15:59.618Z,37.54
2023-04-07T13:18:26.999Z,38.96
2023-04-07T13:21:10.707Z,38.67
2023-04-07T13:23:43.854Z,38.88
2023-04-07T13:26:13.097Z,36.75
2023-04-07T13:28:40.426Z,36.53
2023-04-07T13:31:07.851Z,36.96
2023-04-07T13:33:35.425Z,37.39
2023-04-07T13:36:02.743Z,38.01
2023-04-07T13:38:30.025Z,37.91
2023-04-07T13:40:57.308Z,37.75
2023-04-07T13:43:26.312Z,37.39
2023-04-07T13:45:54.006Z,38.12
2023-04-07T13:48:21.592Z,38.37
2023-04-07T13:50:48.847Z,38.01
2023-04-07T13:53:18.884Z,38.70
2023-04-07T13:55:46.470Z,38.06
2023-04-07T13:58:14.267Z,38.29
2023-04-07T14:00:43.303Z,38.26
2023-04-07T14:03:10.661Z,38.75
2023-04-07T14:05:37.960Z,38.28
2023-04-07T14:08:05.307Z,39.07
2023-04-07T14:10:33.349Z,39.36
2023-04-07T14:13:01.364Z,39.75
2023-04-07T14:15:28.638Z,40.23
2023-04-07T14:17:57.269Z,39.50
2023-04-07T14:20:26.593Z,39.65
2023-04-07T14:22:54.788Z,38.81
2023-04-07T14:25:22.272Z,39.12
2023-04-07T14:27:49.598Z,40.69
2023-04-07T14:30:17.182Z,39.93
2023-04-07T14:32:44.469Z,39.82
2023-04-07T14:35:16.657Z,40.05
2023-04-07T14:37:43.928Z,40.57
2023-04-07T14:40:11.575Z,40.28
2023-04-07T14:42:39.084Z,39.72
2023-04-07T14:45:06.886Z,39.61
2023-04-07T14:47:34.240Z,40.25
2023-04-07T14:50:01.676Z,40.88
2023-04-07T14:52:30.293Z,40.98
2023-04-07T14:54:59.662Z,40.60
2023-04-07T14:57:27.545Z,40.96
2023-04-07T14:59:54.846Z,40.50
2023-04-07T15:02:22.536Z,41.42
2023-04-07T15:04:49.965Z,41.39
2023-04-07T15:07:17.284Z,41.08
2023-04-07T15:09:47.562Z,41.19
2023-04-07T15:12:14.886Z,41.53
2023-04-07T15:14:42.397Z,41.72
2023-04-07T15:17:09.692Z,41.61
2023-04-07T15:19:37.251Z,41.21
2023-04-07T15:22:04.588Z,41.93
2023-04-07T15:24:31.877Z,41.48
2023-04-07T15:27:00.479Z,42.30
2023-04-07T15:29:27.810Z,42.10
2023-04-07T15:31:55.466Z,41.98
2023-04-07T15:34:22.798Z,41.54
2023-04-07T15:36:50.330Z,42.21
2023-04-07T15:39:17.611Z,42.51
2023-04-07T15:41:44.928Z,43.69
2023-04-07T15:44:17.822Z,42.74
2023-04-07T15:46:45.163Z,42.43
2023-04-07T15:49:12.488Z,42.91
2023-04-07T15:51:39.806Z,43.28
2023-04-07T15:54:07.092Z,43.25
2023-04-07T15:56:35.121Z,45.11
2023-04-07T15:59:02.401Z,44.50
2023-04-07T16:01:31.144Z,44.50
2023-04-07T16:03:58.766Z,44.21
2023-04-07T16:06:26.347Z,44.76
2023-04-07T16:08:53.930Z,44.57
2023-04-07T16:11:21.203Z,44.96
2023-04-07T16:13:50.503Z,45.69
2023-04-07T16:16:19.007Z,45.78
2023-04-07T16:18:47.929Z,45.96
2023-04-07T16:21:15.499Z,46.45
2023-04-07T16:23:42.812Z,46.48
2023-04-07T16:26:10.928Z,46.85
2023-04-07T16:28:39.140Z,46.95
2023-04-07T16:31:08.699Z,47.19
2023-04-07T16:33:36.514Z,48.67
2023-04-07T16:36:06.011Z,48.54
2023-04-07T16:38:33.325Z,48.69
2023-04-07T16:41:04.499Z,48.91
2023-04-07T16:43:32.304Z,50.01
2023-04-07T16:46:00.197Z,49.64
2023-04-07T16:48:27.758Z,49.84
2023-04-07T16:50:55.105Z,49.18
2023-04-07T16:53:23.718Z,49.75
2023-04-07T16:55:50.974Z,48.84
2023-04-07T16:58:19.542Z,49.41
2023-04-07T17:00:46.930Z,50.12
2023-04-07T17:03:14.495Z,49.99
2023-04-07T17:05:44.232Z,50.21
2023-04-07T17:08:11.822Z,50.14
2023-04-07T17:10:40.590Z,50.41
2023-04-07T17:13:07.877Z,49.64
2023-04-07T17:15:36.368Z,49.95
2023-04-07T17:18:03.722Z,50.43
2023-04-07T17:20:31.440Z,51.19
2023-04-07T17:22:58.706Z,51.42
2023-04-07T17:25:26.221Z,52.44
2023-04-07T17:27:55.064Z,54.01
2023-04-07T17:30:22.448Z,53.20
2023-04-07T17:32:49.825Z,53.90
2023-04-07T17:35:17.264Z,54.09
2023-04-07T17:37:44.553Z,53.80
2023-04-07T17:40:12.124Z,54.04
2023-04-07T17:42:39.678Z,54.84
2023-04-07T17:45:09.174Z,54.56
2023-04-07T17:47:37.117Z,54.50
2023-04-07T17:50:04.738Z,55.35
2023-04-07T17:52:32.045Z,56.68
2023-04-07T17:54:59.338Z,56.15
2023-04-07T17:57:26.659Z,57.13
2023-04-07T17:59:54.283Z,57.50
2023-04-07T18:02:23.114Z,58.42
2023-04-07T18:04:50.730Z,57.64
2023-04-07T18:07:18.548Z,58.40
2023-04-07T18:09:45.808Z,59.07
2023-04-07T18:12:13.383Z,59.11
2023-04-07T18:14:40.651Z,59.77
2023-04-07T18:17:07.939Z,60.25
2023-04-07T18:19:37.390Z,59.87
2023-04-07T18:22:05.396Z,60.18
2023-04-07T18:24:32.710Z,60.68
2023-04-07T18:27:00.103Z,61.19
2023-04-07T18:29:27.401Z,61.25
2023-04-07T18:31:54.966Z,63.12
2023-04-07T18:34:22.308Z,63.72
2023-04-07T18:36:51.121Z,64.74
2023-04-07T18:39:19.018Z,65.89
2023-04-07T18:41:47.363Z,65.63
2023-04-07T18:44:14.824Z,66.18
2023-04-07T18:46:42.147Z,66.69
2023-04-07T18:49:10.180Z,67.95
2023-04-07T18:51:37.606Z,70.08
2023-04-07T18:54:06.218Z,70.74
2023-04-07T18:56:33.661Z,71.93
2023-04-07T18:59:01.198Z,72.69
2023-04-07T19:01:28.597Z,72.97
2023-04-07T19:03:57.528Z,73.11
2023-04-07T19:06:25.927Z,74.13
2023-04-07T19:08:53.254Z,74.99
2023-04-07T19:11:21.890Z,76.87
2023-04-07T19:13:50.046Z,77.14
2023-04-07T19:16:17.763Z,78.03
2023-04-07T19:18:45.069Z,78.23
2023-04-07T19:21:13.349Z,79.37
2023-04-07T19:23:42.134Z,79.45
2023-04-07T19:26:10.409Z,78.84
2023-04-07T19:28:39.101Z,79.43
2023-04-07T19:31:07.030Z,78.97
2023-04-07T19:33:34.282Z,78.81
2023-04-07T19:36:01.741Z,78.56
2023-04-07T19:38:29.089Z,78.87
2023-04-07T19:40:56.403Z,80.27
2023-04-07T19:43:23.691Z,79.90
2023-04-07T19:45:52.777Z,81.16
2023-04-07T19:48:20.097Z,81.35
2023-04-07T19:50:49.503Z,81.29
2023-04-07T19:53:17.960Z,81.84
2023-04-07T19:55:45.905Z,80.86
2023-04-07T19:58:13.328Z,81.25
2023-04-07T20:00:42.520Z,81.19
2023-04-07T20:03:11.338Z,81.76
2023-04-07T20:05:38.959Z,81.76
2023-04-07T20:08:06.402Z,81.93
2023-04-07T20:10:35.516Z,82.16
2023-04-07T20:13:03.781Z,82.28
2023-04-07T20:15:32.447Z,82.93
2023-04-07T20:18:00.132Z,82.95
2023-04-07T20:20:29.125Z,81.93
2023-04-07T20:22:56.491Z,82.28
2023-04-07T20:25:23.829Z,81.14
2023-04-07T20:27:51.104Z,81.72
2023-04-07T20:30:18.599Z,82.54
2023-04-07T20:32:46.989Z,82.49
2023-04-07T20:35:14.377Z,80.88
2023-04-07T20:37:44.364Z,80.94
2023-04-07T20:40:12.390Z,81.97
2023-04-07T20:42:39.715Z,81.54
2023-04-07T20:45:07.750Z,81.48
2023-04-07T20:47:36.710Z,82.74
2023-04-07T20:50:04.188Z,82.54
2023-04-07T20:52:31.516Z,82.01
2023-04-07T20:55:00.158Z,83.39
2023-04-07T20:57:28.305Z,84.65
2023-04-07T20:59:55.720Z,84.82
2023-04-07T21:02:23.141Z,83.97
2023-04-07T21:04:50.843Z,83.44
2023-04-07T21:07:18.144Z,84.22
2023-04-07T21:09:45.471Z,84.31
2023-04-07T21:12:14.180Z,83.20
2023-04-07T21:14:41.484Z,82.95
2023-04-07T21:17:08.826Z,83.31
2023-04-07T21:19:36.516Z,84.58
2023-04-07T21:22:06.516Z,83.88
2023-04-07T21:24:33.985Z,84.81
2023-04-07T21:27:01.398Z,85.59
2023-04-07T21:29:31.965Z,85.37
2023-04-07T21:31:59.734Z,86.31
2023-04-07T21:34:27.574Z,86.41
2023-04-07T21:36:54.852Z,87.26
2023-04-07T21:39:22.239Z,87.69
2023-04-07T21:41:49.517Z,87.15
2023-04-07T21:44:19.863Z,88.51
2023-04-07T21:46:48.823Z,87.45
2023-04-07T21:49:17.918Z,88.25
2023-04-07T21:51:45.247Z,87.05
2023-04-07T21:54:12.735Z,87.61
2023-04-07T21:56:40.424Z,87.47
2023-04-07T21:59:07.830Z,86.55
2023-04-07T22:01:35.173Z,88.33
2023-04-07T22:04:03.887Z,88.13
2023-04-07T22:06:31.276Z,88.92
2023-04-07T22:09:01.154Z,90.08
2023-04-07T22:11:29.362Z,90.42
2023-04-07T22:13:56.662Z,89.94
2023-04-07T22:16:23.996Z,90.02
2023-04-07T22:18:51.327Z,91.29
2023-04-07T22:21:19.910Z,91.49
2023-04-07T22:23:47.212Z,91.60
2023-04-07T22:26:14.550Z,92.33
2023-04-07T22:28:42.129Z,92.49
2023-04-07T22:31:09.472Z,93.21
2023-04-07T22:33:37.334Z,92.10
2023-04-07T22:36:05.008Z,92.91
2023-04-07T22:38:33.648Z,92.16
2023-04-07T22:41:01.282Z,91.80
2023-04-07T22:43:28.602Z,92.58
2023-04-07T22:45:55.878Z,94.15
2023-04-07T22:48:23.148Z,94.16
2023-04-07T22:50:50.428Z,93.13
2023-04-07T22:53:17.685Z,93.73
2023-04-07T22:55:46.298Z,95.16
2023-04-07T22:58:13.569Z,95.45
2023-04-07T23:00:41.034Z,96.09
2023-04-07T23:03:08.628Z,94.69
2023-04-07T23:05:36.168Z,95.31
2023-04-07T23:08:03.413Z,95.64
2023-04-07T23:10:31.108Z,95.62
2023-04-07T23:12:59.739Z,96.37
2023-04-07T23:15:27.226Z,96.33
2023-04-07T23:17:55.917Z,96.90
2023-04-07T23:20:23.241Z,95.88
2023-04-07T23:22:50.528Z,96.40
2023-04-07T23:25:17.796Z,95.81
2023-04-07T23:27:45.551Z,96.47
2023-04-07T23:30:14.432Z,96.54
2023-04-07T23:32:42.215Z,96.46
2023-04-07T23:35:10.070Z,96.89
2023-04-07T23:37:37.328Z,98.30
2023-04-07T23:40:04.796Z,97.86
2023-04-07T23:42:32.454Z,97.05
2023-04-07T23:44:59.703Z,97.65
2023-04-07T23:47:28.387Z,97.06
2023-04-07T23:49:55.748Z,97.41
2023-04-07T23:52:23.449Z,97.61
2023-04-07T23:54:51.641Z,97.52
2023-04-07T23:57:18.924Z,97.73
2023-04-07T23:59:46.381Z,97.67
